Saugatuck, Connecticut
Current Conditions -  °F | °C
As of 10:52 AM on Thursday 30 Oct 2014 (Local Time) from KBDR Reporting Station
Broken Clouds Broken Clouds  
Wind Chill: 57°   Ceiling: 8000
Heat Index: 57°   Visibility: 10mi
Dew Point: 41°   Wind: 12mph
Humidity: 55%   Direction: 20°NNE
Pressure: 29.98"   Gusts: NA
Location:  41.1454°N, 73.3462°W
Report Text: KBDR 301452Z 02010KT 10SM BKN080 14/05 A2998 RMK AO2 SLP153 T01390050 51004
Loading
Personal Weather Stations






























Interactive Weather Map New forecast layout! Learn more

10-Day Weather Forecast

Advertisements
Track Severe Weather on mobile